Time;durP1;ratioP1;P1;durP2;ratioP2;P2;SDS_P1;SDS_P2;PMS_P1;PMS_P2;Temp;Humidity;BMP_temperature;BMP_pressure;BME280_temperature;BME280_humidity;BME280_pressure;Samples;Min_cycle;Max_cycle;Signal;HPM_P1;HPM_P2
2024/03/26 00:02:05;;;;;;;;;;;;;;;2.94;73.05;99605.73;111026;1252;23547;-66
2024/03/26 00:04:34;;;;;;;;;;;;;;;2.91;73.13;99606.56;111296;1252;21941;-65
2024/03/26 00:07:03;;;;;;;;;;;;;;;2.88;72.92;99608.29;111289;1252;23006;-65
2024/03/26 00:09:32;;;;;;;;;;;;;;;2.85;72.99;99611.59;111184;1252;22051;-66
2024/03/26 00:12:01;;;;;;;;;;;;;;;2.80;73.08;99619.12;111408;1252;21965;-65
2024/03/26 00:14:29;;;;;;;;;;;;;;;2.73;72.93;99615.30;111324;1252;21999;-66
2024/03/26 00:16:58;;;;;;;;;;;;;;;2.66;73.35;99615.30;111293;1252;22720;-66
2024/03/26 00:19:27;;;;;;;;;;;;;;;2.63;73.69;99616.30;111356;1251;21934;-67
2024/03/26 00:21:56;;;;;;;;;;;;;;;2.63;73.56;99616.52;111375;1246;22816;-67
2024/03/26 00:24:25;;;;;;;;;;;;;;;2.61;73.43;99618.52;111140;1252;23073;-67
2024/03/26 00:26:53;;;;;;;;;;;;;;;2.58;73.42;99618.85;111350;1252;23428;-67
2024/03/26 00:29:22;;;;;;;;;;;;;;;2.48;73.54;99613.05;111330;1252;21955;-66
2024/03/26 00:31:51;;;;;;;;;;;;;;;2.41;73.94;99611.97;111620;1252;21934;-66
2024/03/26 00:34:19;;;;;;;;;;;;;;;2.39;73.93;99613.12;111326;1251;22738;-66
2024/03/26 00:36:48;;;;;;;;;;;;;;;2.38;73.85;99611.47;111385;1252;21949;-66
2024/03/26 00:39:17;;;;;;;;;;;;;;;2.35;73.89;99611.59;110695;1259;23163;-65
2024/03/26 00:41:45;;;;;;;;;;;;;;;2.27;73.80;99610.58;110722;1248;21940;-64
2024/03/26 00:44:14;;;;;;;;;;;;;;;2.19;74.04;99614.59;110704;1259;21941;-66
2024/03/26 00:46:43;;;;;;;;;;;;;;;2.17;74.56;99617.84;110709;1257;21948;-67
2024/03/26 00:49:11;;;;;;;;;;;;;;;2.14;74.56;99622.98;110721;1258;21950;-67
2024/03/26 00:51:44;;;;;;;;;;;;;;;2.12;74.48;99625.20;110719;1258;21995;-66
2024/03/26 00:54:15;;;;;;;;;;;;;;;2.10;74.69;99624.77;110587;1258;22121;-65
2024/03/26 00:56:44;;;;;;;;;;;;;;;2.08;74.87;99625.94;110727;1252;21940;-66
2024/03/26 00:59:13;;;;;;;;;;;;;;;2.08;75.11;99626.96;111317;1252;21985;-66
2024/03/26 01:01:41;;;;;;;;;;;;;;;2.10;74.90;99624.42;111359;1252;21941;-65
2024/03/26 01:04:10;;;;;;;;;;;;;;;2.12;74.87;99627.48;111400;1249;21929;-65
2024/03/26 01:06:40;;;;;;;;;;;;;;;2.13;74.87;99629.70;111357;1252;21931;-66
2024/03/26 01:09:09;;;;;;;;;;;;;;;2.13;74.79;99629.67;111343;1252;21928;-66
2024/03/26 01:11:37;;;;;;;;;;;;;;;2.10;74.60;99630.00;111374;1252;22406;-65
2024/03/26 01:14:06;;;;;;;;;;;;;;;2.05;74.74;99626.89;111317;1252;21932;-66
2024/03/26 01:16:35;;;;;;;;;;;;;;;2.03;74.82;99624.73;111327;1252;22052;-65
2024/03/26 01:19:03;;;;;;;;;;;;;;;1.97;74.68;99623.43;111430;1252;21934;-66
2024/03/26 01:21:32;;;;;;;;;;;;;;;1.84;74.73;99622.48;111333;1252;21940;-65
2024/03/26 01:24:01;;;;;;;;;;;;;;;1.76;75.05;99625.48;111403;1252;22034;-67
2024/03/26 01:26:29;;;;;;;;;;;;;;;1.74;75.31;99619.66;111301;1252;22574;-68
2024/03/26 01:28:58;;;;;;;;;;;;;;;1.73;75.37;99621.63;111369;1251;22924;-65
2024/03/26 01:31:27;;;;;;;;;;;;;;;1.66;75.69;99621.60;111385;1252;21931;-66
2024/03/26 01:33:56;;;;;;;;;;;;;;;1.53;75.78;99623.38;111357;1252;21938;-66
2024/03/26 01:36:24;;;;;;;;;;;;;;;1.43;76.25;99627.47;111320;1241;22025;-65
2024/03/26 01:38:53;;;;;;;;;;;;;;;1.38;75.90;99627.16;111360;1252;22049;-66
2024/03/26 01:41:22;;;;;;;;;;;;;;;1.38;76.26;99631.16;111338;1252;22028;-66
2024/03/26 01:43:50;;;;;;;;;;;;;;;1.41;76.20;99628.59;111464;1252;22900;-67
2024/03/26 01:46:19;;;;;;;;;;;;;;;1.45;76.33;99628.21;111702;1251;21930;-67
2024/03/26 01:48:54;;;;;;;;;;;;;;;1.47;76.04;99625.70;111506;1252;22044;-67
2024/03/26 01:51:37;;;;;;;;;;;;;;;1.47;75.95;99631.10;111063;1252;21930;-66
2024/03/26 01:54:06;;;;;;;;;;;;;;;1.47;76.16;99634.91;111367;1252;21948;-66
2024/03/26 01:56:35;;;;;;;;;;;;;;;1.50;76.44;99634.60;111294;1252;22055;-67
2024/03/26 01:59:04;;;;;;;;;;;;;;;1.59;76.73;99633.52;111338;1252;21948;-65
2024/03/26 02:01:47;;;;;;;;;;;;;;;1.67;76.46;99634.91;111008;1252;21932;-68
2024/03/26 02:04:15;;;;;;;;;;;;;;;1.70;76.31;99632.17;111294;1252;21966;-68
2024/03/26 02:06:44;;;;;;;;;;;;;;;1.73;76.25;99629.25;111584;1252;22139;-65
2024/03/26 02:09:13;;;;;;;;;;;;;;;1.77;76.08;99632.38;111281;1252;23739;-65
2024/03/26 02:11:42;;;;;;;;;;;;;;;1.80;76.02;99630.49;111316;1252;21935;-65
2024/03/26 02:14:10;;;;;;;;;;;;;;;1.82;75.75;99623.83;111382;1252;21927;-66
2024/03/26 02:16:40;;;;;;;;;;;;;;;1.81;75.65;99624.36;111333;1252;21954;-66
2024/03/26 02:19:08;;;;;;;;;;;;;;;1.80;75.72;99625.43;111321;1252;21929;-67
2024/03/26 02:21:37;;;;;;;;;;;;;;;1.81;75.47;99618.66;111339;1252;21940;-65
2024/03/26 02:24:06;;;;;;;;;;;;;;;1.80;75.37;99614.71;111292;1252;21976;-65
2024/03/26 02:26:34;;;;;;;;;;;;;;;1.78;75.27;99625.38;111298;1252;21951;-65
2024/03/26 02:29:03;;;;;;;;;;;;;;;1.77;75.39;99637.23;111343;1252;21981;-66
2024/03/26 02:31:32;;;;;;;;;;;;;;;1.73;75.01;99634.63;111338;1252;22036;-65
2024/03/26 02:34:01;;;;;;;;;;;;;;;1.69;75.47;99630.31;111380;1252;23507;-64
2024/03/26 02:36:29;;;;;;;;;;;;;;;1.70;75.60;99633.90;111343;1252;21998;-66
2024/03/26 02:38:58;;;;;;;;;;;;;;;1.71;75.55;99636.78;111402;1250;21935;-65
2024/03/26 02:41:27;;;;;;;;;;;;;;;1.72;75.66;99631.02;111427;1252;21934;-66
2024/03/26 02:43:56;;;;;;;;;;;;;;;1.73;75.64;99633.95;111391;1252;21936;-66
2024/03/26 02:46:24;;;;;;;;;;;;;;;1.69;75.43;99635.83;110996;1252;23550;-67
2024/03/26 02:48:53;;;;;;;;;;;;;;;1.60;75.32;99632.63;111273;1252;22999;-66
2024/03/26 02:51:21;;;;;;;;;;;;;;;1.47;75.53;99631.08;111299;1252;21956;-65
2024/03/26 02:53:50;;;;;;;;;;;;;;;1.38;75.68;99627.19;111288;1252;21974;-65
2024/03/26 02:56:19;;;;;;;;;;;;;;;1.31;75.87;99624.55;111341;1252;21925;-64
2024/03/26 02:58:48;;;;;;;;;;;;;;;1.25;76.41;99627.23;111355;1252;22020;-65
2024/03/26 03:01:16;;;;;;;;;;;;;;;1.18;76.29;99628.40;111382;1242;22027;-65
2024/03/26 03:03:46;;;;;;;;;;;;;;;1.10;76.50;99630.98;111100;1252;24259;-65
2024/03/26 03:06:14;;;;;;;;;;;;;;;1.03;76.21;99627.64;111326;1252;23579;-66
2024/03/26 03:08:43;;;;;;;;;;;;;;;0.92;76.43;99633.29;111338;1252;21941;-68
2024/03/26 03:11:12;;;;;;;;;;;;;;;0.85;76.65;99631.50;111361;1252;21949;-66
2024/03/26 03:13:41;;;;;;;;;;;;;;;0.85;76.63;99629.09;111370;1252;21996;-66
2024/03/26 03:16:09;;;;;;;;;;;;;;;0.86;76.71;99629.23;111450;1252;24053;-66
2024/03/26 03:18:38;;;;;;;;;;;;;;;0.84;76.69;99633.48;111326;1252;23582;-66
2024/03/26 03:21:07;;;;;;;;;;;;;;;0.78;76.54;99630.94;111377;1252;21941;-66
2024/03/26 03:23:35;;;;;;;;;;;;;;;0.75;76.77;99629.69;111336;1252;23641;-66
2024/03/26 03:26:04;;;;;;;;;;;;;;;0.77;76.90;99634.46;111351;1252;21948;-70
2024/03/26 03:28:33;;;;;;;;;;;;;;;0.78;76.44;99635.98;111412;1252;22036;-67
2024/03/26 03:31:02;;;;;;;;;;;;;;;0.72;76.34;99639.85;111569;1252;21938;-68
2024/03/26 03:33:30;;;;;;;;;;;;;;;0.68;76.56;99640.39;111319;1252;21952;-66
2024/03/26 03:35:59;;;;;;;;;;;;;;;0.64;76.43;99638.30;111309;1252;22034;-66
2024/03/26 03:38:28;;;;;;;;;;;;;;;0.58;76.57;99639.90;111381;1252;24296;-67
2024/03/26 03:40:56;;;;;;;;;;;;;;;0.53;76.65;99642.37;111473;1252;23729;-67
2024/03/26 03:43:25;;;;;;;;;;;;;;;0.49;76.76;99637.81;111269;1252;21938;-65
2024/03/26 03:45:54;;;;;;;;;;;;;;;0.45;76.78;99632.62;111332;1252;21954;-67
2024/03/26 03:48:23;;;;;;;;;;;;;;;0.44;77.06;99635.44;111421;1252;21936;-67
2024/03/26 03:50:51;;;;;;;;;;;;;;;0.44;76.83;99636.84;111332;1252;23644;-66
2024/03/26 03:53:20;;;;;;;;;;;;;;;0.45;77.10;99636.10;111425;1252;21940;-66
2024/03/26 03:55:49;;;;;;;;;;;;;;;0.52;77.45;99638.08;111356;1252;21936;-67
2024/03/26 03:58:23;;;;;;;;;;;;;;;0.58;77.33;99641.13;111150;1252;21929;-66
2024/03/26 04:00:58;;;;;;;;;;;;;;;0.64;77.09;99635.16;111645;1252;22718;-66
2024/03/26 04:03:26;;;;;;;;;;;;;;;0.67;76.89;99630.17;111601;1252;21931;-67
2024/03/26 04:05:55;;;;;;;;;;;;;;;0.68;76.58;99635.88;111562;1252;23582;-67
2024/03/26 04:08:23;;;;;;;;;;;;;;;0.64;76.45;99635.16;111551;1252;21946;-68
2024/03/26 04:10:52;;;;;;;;;;;;;;;0.59;76.43;99636.05;111552;1252;22701;-67
2024/03/26 04:13:21;;;;;;;;;;;;;;;0.51;76.69;99638.98;111580;1252;22439;-67
2024/03/26 04:15:49;;;;;;;;;;;;;;;0.44;76.80;99639.26;111621;1252;23052;-68
2024/03/26 04:18:18;;;;;;;;;;;;;;;0.39;76.82;99641.55;111560;1251;22409;-66
2024/03/26 04:20:46;;;;;;;;;;;;;;;0.40;77.25;99642.53;111564;1252;21955;-67
2024/03/26 04:23:15;;;;;;;;;;;;;;;0.46;77.65;99641.60;111296;1252;21943;-68
2024/03/26 04:25:54;;;;;;;;;;;;;;;0.53;77.14;99639.79;111354;1252;21955;-67
2024/03/26 04:28:26;;;;;;;;;;;;;;;0.53;77.07;99642.20;111310;1252;21930;-67
2024/03/26 04:30:54;;;;;;;;;;;;;;;0.48;76.78;99644.11;111353;1252;21931;-66
2024/03/26 04:33:24;;;;;;;;;;;;;;;0.38;76.99;99644.88;111192;1252;22779;-66
2024/03/26 04:35:52;;;;;;;;;;;;;;;0.29;76.90;99640.20;111251;1253;21946;-66
2024/03/26 04:38:21;;;;;;;;;;;;;;;0.24;77.00;99641.42;111095;1253;22001;-67
2024/03/26 04:40:50;;;;;;;;;;;;;;;0.24;77.19;99634.67;111114;1253;21932;-65
2024/03/26 04:43:19;;;;;;;;;;;;;;;0.27;77.06;99638.71;111136;1253;23403;-66
2024/03/26 04:45:47;;;;;;;;;;;;;;;0.24;76.85;99642.31;110990;1253;21940;-65
2024/03/26 04:48:20;;;;;;;;;;;;;;;0.20;77.07;99645.77;111307;1253;21976;-66
2024/03/26 04:50:49;;;;;;;;;;;;;;;0.14;76.93;99648.22;111008;1253;21936;-65
2024/03/26 04:53:18;;;;;;;;;;;;;;;0.02;77.55;99652.83;110977;1253;21952;-65
2024/03/26 04:55:47;;;;;;;;;;;;;;;-0.07;77.58;99658.37;111077;1253;22010;-65
2024/03/26 04:58:16;;;;;;;;;;;;;;;-0.11;77.78;99660.09;111071;1253;23653;-65
2024/03/26 05:00:50;;;;;;;;;;;;;;;-0.13;78.02;99660.50;111002;1253;21932;-64
2024/03/26 05:03:18;;;;;;;;;;;;;;;-0.10;78.14;99656.22;111031;1253;22703;-66
2024/03/26 05:05:48;;;;;;;;;;;;;;;-0.03;78.06;99659.96;111042;1253;21945;-66
2024/03/26 05:08:16;;;;;;;;;;;;;;;0.07;78.20;99658.90;111022;1253;21933;-65
2024/03/26 05:10:46;;;;;;;;;;;;;;;0.18;78.23;99656.90;111096;1253;21938;-65
2024/03/26 05:13:14;;;;;;;;;;;;;;;0.29;78.33;99657.16;110963;1253;21936;-64
2024/03/26 05:15:43;;;;;;;;;;;;;;;0.41;78.38;99661.90;110944;1253;21993;-65
2024/03/26 05:18:11;;;;;;;;;;;;;;;0.51;78.45;99658.54;110990;1253;21933;-67
2024/03/26 05:20:40;;;;;;;;;;;;;;;0.62;78.39;99657.26;111024;1253;21937;-68
2024/03/26 05:23:09;;;;;;;;;;;;;;;0.71;77.98;99655.83;111245;1253;21960;-68
2024/03/26 05:25:37;;;;;;;;;;;;;;;0.80;77.90;99658.77;111311;1253;21939;-67
2024/03/26 05:28:06;;;;;;;;;;;;;;;0.87;77.83;99655.88;111233;1253;23000;-68
2024/03/26 05:30:34;;;;;;;;;;;;;;;0.93;77.72;99654.04;111264;1253;21942;-67
2024/03/26 05:33:03;;;;;;;;;;;;;;;1.00;77.57;99651.86;111327;1253;21939;-68
2024/03/26 05:35:31;;;;;;;;;;;;;;;1.06;77.68;99650.06;111477;1253;21953;-67
2024/03/26 05:38:00;;;;;;;;;;;;;;;1.12;77.48;99649.98;111252;1251;21945;-68
2024/03/26 05:40:29;;;;;;;;;;;;;;;1.18;77.78;99649.02;111345;1253;23548;-67
2024/03/26 05:42:57;;;;;;;;;;;;;;;1.26;77.44;99648.70;111311;1252;22155;-68
2024/03/26 05:45:26;;;;;;;;;;;;;;;1.32;77.13;99645.12;110951;1253;23554;-67
2024/03/26 05:47:55;;;;;;;;;;;;;;;1.37;77.35;99642.63;111021;1253;21942;-67
2024/03/26 05:50:24;;;;;;;;;;;;;;;1.44;77.43;99641.97;111118;1253;23677;-68
2024/03/26 05:52:52;;;;;;;;;;;;;;;1.51;77.17;99643.25;111253;1253;21940;-67
2024/03/26 05:55:20;;;;;;;;;;;;;;;1.60;77.43;99647.89;111260;1253;21939;-67
2024/03/26 05:57:49;;;;;;;;;;;;;;;1.69;77.32;99648.16;111282;1253;23583;-68
2024/03/26 06:00:18;;;;;;;;;;;;;;;1.75;77.46;99648.23;111320;1253;23640;-67
2024/03/26 06:02:47;;;;;;;;;;;;;;;1.82;77.64;99640.63;111306;1253;22926;-68
2024/03/26 06:05:16;;;;;;;;;;;;;;;1.95;77.49;99635.16;111345;1253;21954;-68
2024/03/26 06:07:45;;;;;;;;;;;;;;;2.10;77.51;99633.98;111633;1253;21946;-68
2024/03/26 06:10:13;;;;;;;;;;;;;;;2.24;77.17;99631.41;111930;1253;23586;-68
2024/03/26 06:12:42;;;;;;;;;;;;;;;2.36;77.08;99629.43;112372;1253;21931;-68
2024/03/26 06:15:12;;;;;;;;;;;;;;;2.48;77.02;99626.75;112777;1253;22557;-69
2024/03/26 06:17:41;;;;;;;;;;;;;;;2.61;76.59;99627.86;112880;1253;21967;-69
2024/03/26 06:20:10;;;;;;;;;;;;;;;2.74;76.58;99636.27;112904;1253;22162;-69
2024/03/26 06:22:39;;;;;;;;;;;;;;;2.92;76.82;99636.58;112744;1253;22427;-68
2024/03/26 06:25:07;;;;;;;;;;;;;;;3.12;76.39;99638.54;112532;1253;22151;-69
2024/03/26 06:27:36;;;;;;;;;;;;;;;3.32;75.81;99641.20;111419;1253;21957;-68
2024/03/26 06:30:06;;;;;;;;;;;;;;;3.45;75.25;99645.35;111305;1253;21954;-69
2024/03/26 06:32:34;;;;;;;;;;;;;;;3.58;74.94;99645.90;110977;1251;23657;-68
2024/03/26 06:35:03;;;;;;;;;;;;;;;3.78;75.36;99647.30;111304;1253;22998;-68
2024/03/26 06:37:32;;;;;;;;;;;;;;;4.06;75.09;99649.11;111297;1253;23667;-68
2024/03/26 06:40:01;;;;;;;;;;;;;;;4.43;74.51;99646.49;111321;1253;21970;-68
2024/03/26 06:42:29;;;;;;;;;;;;;;;4.81;73.94;99640.13;111253;1253;21941;-68
2024/03/26 06:44:58;;;;;;;;;;;;;;;5.32;73.20;99637.17;111334;1253;22178;-67
2024/03/26 06:47:26;;;;;;;;;;;;;;;5.84;71.54;99630.34;111322;1253;24092;-66
2024/03/26 06:49:55;;;;;;;;;;;;;;;6.28;70.20;99629.33;111151;1253;21982;-71
2024/03/26 06:52:24;;;;;;;;;;;;;;;6.76;69.08;99635.84;111346;1253;21939;-67
2024/03/26 06:54:52;;;;;;;;;;;;;;;7.23;67.61;99635.52;111348;1253;23012;-70
2024/03/26 06:57:21;;;;;;;;;;;;;;;7.69;66.00;99631.50;111364;1253;23239;-66
2024/03/26 06:59:49;;;;;;;;;;;;;;;8.04;64.87;99628.15;111098;1253;22101;-67
2024/03/26 07:02:18;;;;;;;;;;;;;;;8.35;64.06;99629.07;111304;1253;21939;-67
2024/03/26 07:04:46;;;;;;;;;;;;;;;8.63;63.96;99628.30;111288;1253;21994;-68
2024/03/26 07:07:15;;;;;;;;;;;;;;;8.95;62.49;99629.78;111262;1253;21949;-68
2024/03/26 07:09:44;;;;;;;;;;;;;;;9.14;62.06;99634.62;111259;1253;21946;-68
2024/03/26 07:12:12;;;;;;;;;;;;;;;9.17;61.10;99639.41;111291;1253;22704;-67
2024/03/26 07:14:41;;;;;;;;;;;;;;;9.10;60.46;99638.14;111321;1253;21938;-68
2024/03/26 07:17:10;;;;;;;;;;;;;;;9.21;61.25;99638.73;111259;1253;23055;-68
2024/03/26 07:19:39;;;;;;;;;;;;;;;9.46;60.97;99630.81;111312;1253;23563;-68
2024/03/26 07:22:08;;;;;;;;;;;;;;;9.78;61.20;99628.13;111297;1253;23667;-64
2024/03/26 07:24:36;;;;;;;;;;;;;;;10.11;59.10;99626.97;111014;1253;21948;-66
2024/03/26 07:27:05;;;;;;;;;;;;;;;10.33;58.95;99623.45;111177;1253;22292;-65
2024/03/26 07:29:34;;;;;;;;;;;;;;;10.61;57.40;99620.69;110955;1253;21941;-67
2024/03/26 07:32:03;;;;;;;;;;;;;;;10.73;56.32;99615.08;111056;1253;22048;-64
2024/03/26 07:34:34;;;;;;;;;;;;;;;10.98;57.33;99618.32;111060;1253;22713;-65
2024/03/26 07:37:05;;;;;;;;;;;;;;;11.31;55.67;99623.14;111066;1253;21974;-65
2024/03/26 07:39:35;;;;;;;;;;;;;;;11.50;54.91;99624.83;111061;1253;21936;-65
2024/03/26 07:42:04;;;;;;;;;;;;;;;11.61;55.11;99624.47;111068;1251;21937;-64
2024/03/26 07:44:32;;;;;;;;;;;;;;;11.67;54.04;99622.64;110925;1253;21952;-68
2024/03/26 07:47:02;;;;;;;;;;;;;;;11.64;53.35;99620.66;111327;1253;21999;-67
2024/03/26 07:49:31;;;;;;;;;;;;;;;11.69;53.97;99616.02;111024;1253;22699;-65
2024/03/26 07:51:59;;;;;;;;;;;;;;;12.00;53.83;99616.50;111082;1253;21952;-65
2024/03/26 07:54:30;;;;;;;;;;;;;;;12.28;52.11;99619.34;111026;1253;21939;-65
2024/03/26 07:56:59;;;;;;;;;;;;;;;12.43;52.39;99617.95;111048;1244;21926;-67
2024/03/26 07:59:28;;;;;;;;;;;;;;;12.76;51.27;99616.86;111072;1253;21989;-67
2024/03/26 08:01:57;;;;;;;;;;;;;;;13.12;50.51;99614.13;110931;1253;21946;-66
2024/03/26 08:04:26;;;;;;;;;;;;;;;13.45;51.08;99606.12;111086;1253;21939;-68
2024/03/26 08:06:54;;;;;;;;;;;;;;;13.96;50.08;99602.95;111092;1253;23653;-66
2024/03/26 08:09:23;;;;;;;;;;;;;;;14.07;48.59;99596.52;111055;1253;21963;-66
2024/03/26 08:11:52;;;;;;;;;;;;;;;13.82;48.94;99591.10;111065;1253;21935;-65
2024/03/26 08:14:21;;;;;;;;;;;;;;;13.63;49.50;99590.09;111028;1253;21907;-65
2024/03/26 08:16:53;;;;;;;;;;;;;;;13.74;47.96;99584.27;111198;1253;21948;-64
2024/03/26 08:19:21;;;;;;;;;;;;;;;14.02;47.68;99578.10;111137;1253;21909;-65
2024/03/26 08:21:50;;;;;;;;;;;;;;;14.10;47.74;99579.13;111114;1253;21942;-66
2024/03/26 08:24:19;;;;;;;;;;;;;;;13.96;48.34;99571.90;111059;1253;21940;-65
2024/03/26 08:26:47;;;;;;;;;;;;;;;13.97;47.34;99568.81;111152;1253;21908;-65
2024/03/26 08:29:16;;;;;;;;;;;;;;;13.96;46.57;99564.48;111083;1245;21998;-66
2024/03/26 08:31:45;;;;;;;;;;;;;;;14.13;46.96;99566.55;111105;1253;21946;-65
2024/03/26 08:34:15;;;;;;;;;;;;;;;14.38;46.71;99562.48;111046;1253;21934;-64
2024/03/26 08:36:44;;;;;;;;;;;;;;;14.55;46.09;99557.16;111043;1253;21941;-68
2024/03/26 08:39:13;;;;;;;;;;;;;;;14.67;47.01;99553.32;111093;1253;21947;-65
2024/03/26 08:41:42;;;;;;;;;;;;;;;14.90;45.43;99547.62;111067;1253;24028;-65
2024/03/26 08:44:11;;;;;;;;;;;;;;;14.86;45.15;99551.31;110983;1253;21973;-65
2024/03/26 08:46:40;;;;;;;;;;;;;;;14.60;45.46;99547.23;111073;1253;21948;-66
2024/03/26 08:49:08;;;;;;;;;;;;;;;14.36;47.00;99538.80;111049;1253;22273;-66
2024/03/26 08:51:37;;;;;;;;;;;;;;;14.51;46.81;99539.12;111203;1253;21974;-65
2024/03/26 08:54:07;;;;;;;;;;;;;;;14.71;45.15;99535.84;111102;1253;21936;-66
2024/03/26 08:56:36;;;;;;;;;;;;;;;14.85;45.43;99539.07;111157;1253;21941;-65
2024/03/26 08:59:05;;;;;;;;;;;;;;;14.89;45.60;99534.73;111219;1253;22581;-66
2024/03/26 09:01:33;;;;;;;;;;;;;;;14.77;45.41;99526.96;111108;1253;22035;-65
2024/03/26 09:04:02;;;;;;;;;;;;;;;14.75;45.92;99522.66;111122;1253;21945;-66
2024/03/26 09:06:31;;;;;;;;;;;;;;;14.86;45.52;99518.59;111037;1253;21952;-67
2024/03/26 09:08:59;;;;;;;;;;;;;;;15.09;44.99;99513.05;111036;1253;23657;-66
2024/03/26 09:11:28;;;;;;;;;;;;;;;15.10;44.24;99513.70;111093;1253;23277;-65
2024/03/26 09:13:57;;;;;;;;;;;;;;;14.87;45.12;99516.57;111060;1253;23157;-66
2024/03/26 09:16:27;;;;;;;;;;;;;;;14.81;46.14;99512.77;111002;1253;23456;-64
2024/03/26 09:18:55;;;;;;;;;;;;;;;14.92;45.35;99507.86;111117;1253;23707;-64
2024/03/26 09:21:29;;;;;;;;;;;;;;;14.87;45.74;99507.48;110959;1253;21942;-65
2024/03/26 09:23:57;;;;;;;;;;;;;;;14.85;44.66;99510.20;111008;1253;22032;-65
2024/03/26 09:26:26;;;;;;;;;;;;;;;14.66;44.39;99513.84;110956;1253;23035;-67
2024/03/26 09:28:54;;;;;;;;;;;;;;;14.37;45.24;99507.70;110978;1253;21939;-67
2024/03/26 09:31:22;;;;;;;;;;;;;;;14.21;45.55;99505.95;111020;1253;23753;-65
2024/03/26 09:33:51;;;;;;;;;;;;;;;14.31;45.31;99503.71;111053;1253;22914;-66
2024/03/26 09:36:20;;;;;;;;;;;;;;;14.46;45.47;99499.21;111291;1253;22118;-65
2024/03/26 09:38:49;;;;;;;;;;;;;;;14.56;44.82;99494.19;110980;1253;22713;-70
2024/03/26 09:41:27;;;;;;;;;;;;;;;14.68;44.81;99492.73;111062;1253;21940;-65
2024/03/26 09:43:56;;;;;;;;;;;;;;;14.72;43.30;99492.70;110942;1253;23636;-64
2024/03/26 09:46:26;;;;;;;;;;;;;;;14.55;43.08;99494.58;111087;1253;21932;-66
2024/03/26 09:48:57;;;;;;;;;;;;;;;14.37;44.15;99492.27;110957;1253;21961;-65
2024/03/26 09:51:26;;;;;;;;;;;;;;;14.26;44.12;99486.81;111064;1253;21942;-68
2024/03/26 09:53:57;;;;;;;;;;;;;;;14.10;44.40;99481.84;111091;1253;21931;-65
2024/03/26 09:56:26;;;;;;;;;;;;;;;14.03;44.39;99481.04;111020;1253;22731;-65
2024/03/26 09:58:55;;;;;;;;;;;;;;;13.98;44.54;99479.84;111060;1253;22248;-65
2024/03/26 10:01:25;;;;;;;;;;;;;;;13.90;44.47;99472.32;110950;1253;23701;-65
2024/03/26 10:03:54;;;;;;;;;;;;;;;13.95;43.78;99467.08;111097;1253;22730;-65
2024/03/26 10:06:23;;;;;;;;;;;;;;;14.11;42.89;99464.29;111038;1253;21952;-66
2024/03/26 10:08:52;;;;;;;;;;;;;;;14.07;40.47;99467.24;111020;1253;21962;-65
2024/03/26 10:11:21;;;;;;;;;;;;;;;13.78;40.22;99459.22;110984;1247;22676;-64
2024/03/26 10:13:50;;;;;;;;;;;;;;;13.72;40.36;99451.80;111054;1253;21940;-65
2024/03/26 10:16:19;;;;;;;;;;;;;;;13.97;41.99;99446.36;111012;1253;23439;-65
2024/03/26 10:18:48;;;;;;;;;;;;;;;14.30;40.93;99437.22;110998;1253;22925;-65
2024/03/26 10:21:17;;;;;;;;;;;;;;;14.45;40.02;99433.01;111043;1253;22080;-64
2024/03/26 10:23:45;;;;;;;;;;;;;;;14.55;39.87;99425.77;111082;1253;22723;-64
2024/03/26 10:26:15;;;;;;;;;;;;;;;14.54;39.81;99421.44;111027;1253;21939;-64
2024/03/26 10:28:48;;;;;;;;;;;;;;;14.59;40.35;99413.31;111017;1253;21942;-67
2024/03/26 10:31:18;;;;;;;;;;;;;;;14.71;40.16;99412.36;111029;1253;21935;-65
2024/03/26 10:33:47;;;;;;;;;;;;;;;14.76;38.93;99413.45;111400;1253;21943;-67
2024/03/26 10:36:16;;;;;;;;;;;;;;;14.86;39.10;99412.04;111281;1253;21938;-64
2024/03/26 10:38:45;;;;;;;;;;;;;;;14.84;39.34;99414.89;111034;1253;21918;-66
2024/03/26 10:41:33;;;;;;;;;;;;;;;14.78;38.98;99407.02;111052;1253;21944;-66
2024/03/26 10:44:03;;;;;;;;;;;;;;;14.86;39.36;99398.25;111264;1253;21940;-66
2024/03/26 10:46:32;;;;;;;;;;;;;;;14.96;40.31;99398.27;111034;1253;22046;-65
2024/03/26 10:49:02;;;;;;;;;;;;;;;14.93;40.06;99390.88;111060;1253;22345;-65
2024/03/26 10:51:32;;;;;;;;;;;;;;;14.86;40.65;99395.70;111474;1253;22722;-65
2024/03/26 10:54:02;;;;;;;;;;;;;;;14.74;41.49;99390.85;111043;1253;21949;-66
2024/03/26 10:56:32;;;;;;;;;;;;;;;14.75;41.78;99381.15;111131;1253;22110;-66
2024/03/26 10:59:01;;;;;;;;;;;;;;;14.82;41.72;99382.52;111089;1253;21939;-65
2024/03/26 11:01:30;;;;;;;;;;;;;;;14.73;41.36;99377.28;111161;1253;22747;-66
2024/03/26 11:04:00;;;;;;;;;;;;;;;14.76;40.93;99380.66;111062;1253;21946;-65
2024/03/26 11:06:29;;;;;;;;;;;;;;;14.74;40.54;99377.55;111010;1253;21973;-65
2024/03/26 11:09:01;;;;;;;;;;;;;;;14.60;40.71;99372.23;111087;1249;21938;-66
2024/03/26 11:11:34;;;;;;;;;;;;;;;14.46;40.64;99369.23;111021;1253;21954;-67
2024/03/26 11:14:04;;;;;;;;;;;;;;;14.33;40.61;99364.98;111083;1251;23725;-66
2024/03/26 11:16:40;;;;;;;;;;;;;;;14.12;41.12;99361.83;110948;1253;185541;-66
2024/03/26 11:19:21;;;;;;;;;;;;;;;13.78;41.31;99361.30;111074;1253;21961;-64
2024/03/26 11:21:50;;;;;;;;;;;;;;;13.59;41.68;99356.02;111125;1242;21945;-64
2024/03/26 11:24:24;;;;;;;;;;;;;;;13.46;42.00;99342.88;111029;1253;23025;-65
2024/03/26 11:26:55;;;;;;;;;;;;;;;13.25;42.19;99335.45;111110;1253;21939;-67
2024/03/26 11:29:25;;;;;;;;;;;;;;;13.08;43.15;99337.03;110999;1253;24077;-68
2024/03/26 11:31:55;;;;;;;;;;;;;;;13.03;42.95;99332.57;111308;1253;21950;-67
2024/03/26 11:34:25;;;;;;;;;;;;;;;12.91;42.75;99330.67;111282;1253;21927;-67
2024/03/26 11:36:55;;;;;;;;;;;;;;;12.84;42.79;99335.63;111359;1253;22520;-67
2024/03/26 11:39:25;;;;;;;;;;;;;;;12.79;42.79;99331.52;111309;1253;21939;-68
2024/03/26 11:41:54;;;;;;;;;;;;;;;12.77;42.86;99336.12;111079;1253;24639;-67
2024/03/26 11:44:23;;;;;;;;;;;;;;;12.71;41.98;99334.59;111083;1253;22707;-67
2024/03/26 11:46:52;;;;;;;;;;;;;;;12.66;41.75;99329.06;111122;1253;23090;-67
2024/03/26 11:49:22;;;;;;;;;;;;;;;12.66;42.00;99332.05;111027;1253;21947;-67
2024/03/26 11:51:51;;;;;;;;;;;;;;;12.69;40.89;99316.97;111279;1253;23569;-67
2024/03/26 11:54:20;;;;;;;;;;;;;;;12.78;41.02;99307.98;111291;1253;23544;-67
2024/03/26 11:56:49;;;;;;;;;;;;;;;12.86;41.22;99307.69;111230;1253;21942;-68
2024/03/26 11:59:17;;;;;;;;;;;;;;;12.94;41.97;99301.48;110862;1253;22035;-64
2024/03/26 12:01:48;;;;;;;;;;;;;;;13.02;40.44;99301.38;111094;1253;21939;-66
2024/03/26 12:04:17;;;;;;;;;;;;;;;13.03;40.16;99289.84;111382;1253;21922;-66
2024/03/26 12:06:46;;;;;;;;;;;;;;;12.95;39.87;99286.36;111031;1253;22070;-68
2024/03/26 12:09:16;;;;;;;;;;;;;;;12.92;39.79;99279.38;111077;1253;22033;-65
2024/03/26 12:11:45;;;;;;;;;;;;;;;12.99;40.02;99276.29;111293;1253;22003;-67
2024/03/26 12:14:13;;;;;;;;;;;;;;;13.02;39.91;99275.33;110958;1253;22999;-65
2024/03/26 12:16:42;;;;;;;;;;;;;;;13.08;39.88;99270.25;111252;1253;21939;-66
2024/03/26 12:19:11;;;;;;;;;;;;;;;13.11;39.76;99268.92;111018;1253;21942;-65
2024/03/26 12:21:39;;;;;;;;;;;;;;;13.09;39.54;99263.08;111134;1253;21941;-64
2024/03/26 12:24:12;;;;;;;;;;;;;;;13.11;39.67;99259.16;111027;1253;21937;-64
2024/03/26 12:26:41;;;;;;;;;;;;;;;13.16;39.50;99255.69;111044;1253;23805;-65
2024/03/26 12:29:11;;;;;;;;;;;;;;;13.22;39.83;99250.20;111122;1253;23052;-65
2024/03/26 12:31:39;;;;;;;;;;;;;;;13.28;39.81;99253.86;110998;1253;22715;-66
2024/03/26 12:34:09;;;;;;;;;;;;;;;13.23;39.71;99254.65;111009;1253;23452;-66
2024/03/26 12:36:38;;;;;;;;;;;;;;;13.16;39.55;99247.09;111039;1253;21937;-65
2024/03/26 12:39:10;;;;;;;;;;;;;;;13.19;38.84;99243.23;111026;1253;21940;-65
2024/03/26 12:41:40;;;;;;;;;;;;;;;13.22;38.75;99236.71;111025;1253;21947;-66
2024/03/26 12:44:13;;;;;;;;;;;;;;;13.24;38.68;99238.47;111043;1253;21947;-65
2024/03/26 12:46:42;;;;;;;;;;;;;;;13.22;38.08;99237.27;111000;1253;23010;-67
2024/03/26 12:49:10;;;;;;;;;;;;;;;13.21;38.93;99230.13;111015;1253;21929;-68
2024/03/26 12:51:39;;;;;;;;;;;;;;;13.23;39.50;99224.76;111038;1249;22034;-64
2024/03/26 12:54:09;;;;;;;;;;;;;;;13.30;38.81;99217.89;110930;1253;23627;-65